Time;durP1;ratioP1;P1;durP2;ratioP2;P2;SDS_P1;SDS_P2;PMS_P1;PMS_P2;Temp;Humidity;BMP_temperature;BMP_pressure;BME280_temperature;BME280_humidity;BME280_pressure;Samples;Min_cycle;Max_cycle;Signal;HPM_P1;HPM_P2
2021/12/12 02:09:50;;;;;;;4.43;3.93;;;;;;;2.09;63.22;100004.72;6112590;23;20222;-94
2021/12/12 06:08:27;;;;;;;8.50;7.47;;;;;;;1.03;71.67;100099.81;6197643;23;20201;-80
2021/12/12 06:12:38;;;;;;;9.63;6.67;;;;;;;0.93;72.06;100104.34;6125065;23;20159;-84
2021/12/12 06:16:47;;;;;;;9.57;7.57;;;;;;;1.19;72.74;100125.59;6139544;23;20193;-84
2021/12/12 06:20:19;;;;;;;9.57;7.20;;;;;;;1.04;72.83;100098.84;6170191;23;20190;-80
2021/12/12 06:27:08;;;;;;;12.33;8.23;;;;;;;1.27;72.69;100130.94;6154179;23;20175;-82
2021/12/12 06:30:32;;;;;;;11.00;8.37;;;;;;;1.15;72.79;100089.91;6155772;23;20210;-83
2021/12/12 06:33:57;;;;;;;11.17;8.23;;;;;;;1.34;73.73;100129.41;6194433;23;20138;-80
2021/12/12 06:36:53;;;;;;;11.30;8.83;;;;;;;1.38;73.86;100130.75;6162318;23;20202;-82
2021/12/12 06:40:05;;;;;;;11.83;9.03;;;;;;;1.18;74.50;100126.56;6181958;23;20194;-83
2021/12/12 06:46:36;;;;;;;12.23;9.47;;;;;;;1.28;74.79;100116.78;6171767;23;20221;-81
2021/12/12 08:28:21;;;;;;;14.33;11.37;;;;;;;2.93;71.01;100168.03;6196123;23;20209;-81
2021/12/12 08:32:07;;;;;;;13.83;10.93;;;;;;;2.90;71.08;100168.31;6197717;22;20192;-81
2021/12/12 08:35:31;;;;;;;13.33;10.40;;;;;;;3.09;70.16;100197.22;6269545;23;20208;-80
2021/12/12 08:38:05;;;;;;;14.33;10.60;;;;;;;3.17;70.61;100186.69;6240533;22;20290;-79
2021/12/12 08:40:42;;;;;;;12.70;10.33;;;;;;;3.29;69.64;100190.69;6201867;22;20279;-80
2021/12/12 08:43:23;;;;;;;12.60;10.33;;;;;;;3.29;69.39;100190.69;6158143;23;20210;-80
2021/12/12 08:46:14;;;;;;;11.40;9.30;;;;;;;3.15;69.39;100190.47;6129176;23;20211;-80
2021/12/12 08:48:51;;;;;;;12.63;10.33;;;;;;;3.18;69.72;100190.97;6147392;23;20222;-81
2021/12/12 08:51:32;;;;;;;15.07;11.10;;;;;;;3.17;69.83;100181.38;6110782;23;20236;-80
2021/12/12 08:54:32;;;;;;;13.63;10.83;;;;;;;3.12;69.78;100188.97;6153602;23;20237;-82
2021/12/12 08:57:09;;;;;;;12.73;10.03;;;;;;;3.25;69.54;100193.81;6156685;23;20174;-81
2021/12/12 08:59:43;;;;;;;13.47;10.60;;;;;;;3.13;70.14;100190.59;6156321;23;20190;-81
2021/12/12 09:02:25;;;;;;;15.07;11.00;;;;;;;3.09;70.25;100192.75;6176714;23;20232;-80
2021/12/12 09:05:17;;;;;;;13.63;10.77;;;;;;;2.99;70.17;100196.50;6236044;22;20204;-81
2021/12/12 09:08:13;;;;;;;12.83;10.33;;;;;;;3.00;70.92;100206.94;6275811;22;20846;-78
2021/12/12 09:11:26;;;;;;;13.80;10.23;;;;;;;3.04;70.79;100210.09;6273056;22;20219;-81
2021/12/12 09:15:10;;;;;;;14.60;11.90;;;;;;;3.08;71.01;100203.50;6271663;22;20209;-81
2021/12/12 09:18:06;;;;;;;15.00;12.07;;;;;;;3.07;71.26;100209.78;6266986;23;20200;-81
2021/12/12 09:21:02;;;;;;;15.40;12.00;;;;;;;3.09;71.44;100190.09;6252042;23;20197;-81
2021/12/12 09:23:49;;;;;;;17.57;12.53;;;;;;;3.08;70.99;100177.84;6269422;23;20255;-82
2021/12/12 09:26:46;;;;;;;15.57;12.43;;;;;;;3.19;71.14;100195.28;6244202;22;20204;-81
2021/12/12 09:29:50;;;;;;;16.43;12.57;;;;;;;3.10;71.16;100207.66;6289771;22;20188;-81
2021/12/12 09:32:25;;;;;;;13.97;11.07;;;;;;;3.09;71.66;100197.22;6207005;22;20225;-82
2021/12/12 09:35:24;;;;;;;15.67;12.10;;;;;;;3.17;71.46;100204.38;6181113;23;20206;-81
2021/12/12 09:38:59;;;;;;;16.70;12.97;;;;;;;3.21;70.74;100203.91;6181614;23;20186;-82
2021/12/12 09:42:06;;;;;;;14.50;11.70;;;;;;;3.36;70.62;100201.50;6172707;23;20283;-82
2021/12/12 09:44:57;;;;;;;17.53;11.70;;;;;;;3.29;70.82;100206.59;6124900;23;20210;-82
2021/12/12 09:51:14;;;;;;;15.47;11.77;;;;;;;3.47;70.30;100209.97;6168561;23;20266;-81
2021/12/12 09:51:29;;;;;;;14.40;11.90;;;;;;;3.49;69.62;100197.41;6175629;23;20210;-82
2021/12/12 09:54:13;;;;;;;14.80;12.20;;;;;;;3.60;69.43;100208.69;6151232;23;20242;-82
2021/12/12 09:57:04;;;;;;;15.00;12.07;;;;;;;3.68;69.47;100216.69;6150354;23;20191;-82
2021/12/12 10:00:13;;;;;;;14.87;12.07;;;;;;;3.59;69.36;100220.28;6176746;23;20211;-82
2021/12/12 10:02:45;;;;;;;13.93;11.37;;;;;;;3.58;69.60;100208.03;6126118;23;20174;-81
2021/12/12 10:05:51;;;;;;;15.13;12.57;;;;;;;3.54;69.67;100202.22;6147798;23;20546;-82
2021/12/12 10:08:25;;;;;;;14.33;11.37;;;;;;;3.58;69.82;100206.22;6137542;23;20223;-82
2021/12/12 10:11:38;;;;;;;14.20;11.17;;;;;;;3.71;69.33;100200.44;6146872;23;20215;-82
2021/12/12 10:14:37;;;;;;;13.63;11.17;;;;;;;3.69;69.11;100203.25;6120161;23;20271;-82
2021/12/12 10:18:05;;;;;;;13.90;10.87;;;;;;;3.82;69.10;100210.75;6172783;23;20206;-82
2021/12/12 10:21:09;;;;;;;16.43;12.70;;;;;;;3.73;68.97;100203.78;6179605;23;20198;-81
2021/12/12 10:24:53;;;;;;;15.60;11.70;;;;;;;3.75;69.04;100223.81;6208004;23;20220;-81
2021/12/12 10:28:44;;;;;;;13.80;10.50;;;;;;;3.74;68.69;100227.44;6149380;23;20245;-82
2021/12/12 10:31:35;;;;;;;15.20;11.90;;;;;;;3.77;69.19;100221.00;6158922;23;20294;-81
2021/12/12 10:34:45;;;;;;;15.57;12.07;;;;;;;3.90;68.68;100219.53;6151275;23;20478;-82
2021/12/12 10:38:09;;;;;;;14.97;12.00;;;;;;;3.96;68.41;100213.59;6186065;23;20202;-79
2021/12/12 10:41:14;;;;;;;16.37;11.97;;;;;;;3.86;68.58;100198.81;6124281;23;20197;-82
2021/12/12 10:44:23;;;;;;;15.47;13.23;;;;;;;3.99;68.76;100223.88;6151596;23;20270;-82
2021/12/12 10:47:28;;;;;;;14.93;11.03;;;;;;;3.83;68.48;100218.53;6152240;23;20170;-82
2021/12/12 10:50:20;;;;;;;14.00;11.20;;;;;;;3.97;68.46;100220.53;6089681;23;20198;-82
2021/12/12 10:54:05;;;;;;;14.30;11.77;;;;;;;3.76;68.80;100198.13;6180642;23;20203;-82
2021/12/12 10:56:43;;;;;;;15.13;13.17;;;;;;;3.96;68.63;100234.81;6091858;23;20273;-82
2021/12/12 10:59:47;;;;;;;15.57;12.23;;;;;;;3.87;68.70;100217.19;6166772;23;20199;-82
2021/12/12 11:02:32;;;;;;;16.03;12.43;;;;;;;3.90;68.89;100221.38;6174692;23;20237;-82
2021/12/12 11:05:47;;;;;;;15.23;12.60;;;;;;;4.02;68.76;100228.00;6196538;23;20201;-82
2021/12/12 11:08:41;;;;;;;19.53;13.40;;;;;;;4.03;69.24;100227.03;6179372;23;20222;-82
2021/12/12 11:12:07;;;;;;;14.17;12.20;;;;;;;4.01;68.77;100233.50;6233703;22;20257;-82
2021/12/12 11:15:06;;;;;;;15.20;12.57;;;;;;;4.01;68.35;100226.38;6227632;22;20229;-81
2021/12/12 11:18:43;;;;;;;15.50;12.50;;;;;;;4.05;68.58;100218.91;6188956;23;21292;-82
2021/12/12 11:22:00;;;;;;;15.03;12.33;;;;;;;4.13;68.45;100224.22;6156518;23;20191;-82
2021/12/12 11:24:43;;;;;;;16.73;12.63;;;;;;;4.15;68.91;100223.09;6172218;23;20222;-82
2021/12/12 11:27:51;;;;;;;15.40;12.37;;;;;;;4.11;68.33;100226.19;6175519;23;20294;-83
2021/12/12 11:30:44;;;;;;;15.00;12.50;;;;;;;4.02;69.04;100216.56;6129339;23;20190;-82
2021/12/12 11:33:37;;;;;;;16.50;13.07;;;;;;;3.88;70.12;100212.72;6136564;23;20214;-83
2021/12/12 11:39:28;;;;;;;16.83;13.53;;;;;;;4.09;70.06;100225.53;6172639;23;20170;-83
2021/12/12 11:50:49;;;;;;;16.23;12.37;;;;;;;4.26;68.36;100230.69;6210579;23;20224;-83
2021/12/12 11:54:38;;;;;;;14.97;12.03;;;;;;;4.15;68.33;100230.19;6178061;23;20200;-83
2021/12/12 11:58:15;;;;;;;14.90;11.50;;;;;;;4.12;68.48;100228.69;6193439;23;20254;-83
2021/12/12 12:01:21;;;;;;;13.87;11.43;;;;;;;4.04;69.17;100227.84;6160280;23;20206;-83
2021/12/12 12:07:53;;;;;;;16.10;12.20;;;;;;;3.97;69.23;100232.97;6171766;23;20274;-83
2021/12/12 12:10:46;;;;;;;14.73;11.53;;;;;;;3.94;69.37;100212.91;6182910;23;20189;-83
2021/12/12 12:13:42;;;;;;;14.27;11.57;;;;;;;3.84;69.61;100216.69;6169360;23;20229;-83
2021/12/12 12:16:51;;;;;;;15.30;12.27;;;;;;;3.91;69.68;100213.25;6203361;23;20454;-83
2021/12/12 12:19:34;;;;;;;14.83;11.73;;;;;;;3.77;70.50;100221.84;6179432;23;20197;-82
2021/12/12 12:23:02;;;;;;;15.17;11.53;;;;;;;3.66;70.12;100192.16;6177816;23;20210;-83
2021/12/12 12:29:08;;;;;;;14.00;11.53;;;;;;;3.80;70.37;100202.13;6291857;22;20270;-82
2021/12/12 12:31:36;;;;;;;12.80;10.87;;;;;;;3.97;69.61;100207.28;6240437;23;20713;-81
2021/12/12 12:34:56;;;;;;;13.87;10.93;;;;;;;3.93;69.48;100195.34;6237585;23;20212;-82
2021/12/12 12:37:52;;;;;;;15.13;11.90;;;;;;;3.94;69.76;100202.31;6260196;23;20477;-81
2021/12/12 12:41:19;;;;;;;13.97;11.47;;;;;;;4.10;69.03;100206.81;6260709;23;20201;-80
2021/12/12 12:44:26;;;;;;;14.73;10.43;;;;;;;4.17;68.18;100196.38;6260730;23;20184;-80
2021/12/12 12:47:59;;;;;;;13.77;10.27;;;;;;;4.26;68.95;100206.81;6259216;22;20205;-80
2021/12/12 12:51:10;;;;;;;13.87;10.37;;;;;;;4.48;67.23;100199.22;6235920;23;20671;31
2021/12/12 12:54:26;;;;;;;14.87;10.90;;;;;;;4.46;67.31;100211.81;6172385;23;20199;-80
2021/12/12 12:57:42;;;;;;;14.23;10.87;;;;;;;4.46;67.58;100206.50;6174847;23;20187;-81
2021/12/12 13:00:26;;;;;;;12.30;9.07;;;;;;;4.27;66.74;100195.22;6155788;23;20210;-80
2021/12/12 13:03:12;;;;;;;13.63;9.80;;;;;;;4.37;66.95;100208.31;6174255;23;20222;-80
2021/12/12 13:09:17;;;;;;;12.83;9.47;;;;;;;4.50;66.50;100213.97;6185272;23;20249;-80
2021/12/12 13:12:22;;;;;;;11.83;8.70;;;;;;;4.42;65.86;100212.16;6232338;23;20288;-80
2021/12/12 13:15:11;;;;;;;10.20;7.93;;;;;;;4.38;65.71;100204.69;6277136;22;20192;-81
2021/12/12 13:18:25;;;;;;;10.33;8.30;;;;;;;4.32;65.70;100192.91;6267921;23;20173;-80
2021/12/12 13:21:38;;;;;;;10.77;8.17;;;;;;;4.32;65.68;100202.69;6198101;23;20200;-79
2021/12/12 13:24:36;;;;;;;10.13;8.20;;;;;;;4.25;64.95;100194.56;6230751;23;20192;-80
2021/12/12 13:28:04;;;;;;;11.30;8.37;;;;;;;4.31;64.87;100203.69;6233045;23;20201;-80
2021/12/12 13:31:50;;;;;;;10.17;7.37;;;;;;;4.27;65.00;100208.50;6205904;22;20194;-80
2021/12/12 13:35:06;;;;;;;9.57;7.70;;;;;;;4.23;65.13;100209.00;6265456;23;20195;-80
2021/12/12 13:37:59;;;;;;;10.50;7.13;;;;;;;4.25;65.34;100206.97;6267640;23;20456;-80
2021/12/12 13:41:04;;;;;;;9.97;7.47;;;;;;;4.17;64.74;100209.63;6265733;23;20196;-79
2021/12/12 13:44:30;;;;;;;9.50;7.40;;;;;;;4.06;65.29;100204.66;6265026;23;20244;-80
2021/12/12 13:47:44;;;;;;;8.33;6.83;;;;;;;4.14;64.91;100216.09;6266554;23;20212;-79
2021/12/12 13:50:17;;;;;;;9.37;7.30;;;;;;;4.01;65.33;100220.22;6241293;23;20188;-80
2021/12/12 13:53:32;;;;;;;9.03;7.23;;;;;;;4.07;65.42;100215.09;6267984;23;20612;-80
2021/12/12 13:56:41;;;;;;;10.13;7.20;;;;;;;4.12;65.27;100215.44;6266240;23;20197;-79
2021/12/12 13:59:37;;;;;;;7.80;6.73;;;;;;;4.02;65.40;100208.63;6227214;22;20202;-81
2021/12/12 14:02:26;;;;;;;8.80;7.07;;;;;;;3.97;65.54;100217.06;6249226;22;20208;-79
2021/12/12 14:08:29;;;;;;;7.67;5.70;;;;;;;3.97;65.75;100214.41;6142759;23;20481;-81
2021/12/12 14:11:13;;;;;;;7.97;6.17;;;;;;;3.93;65.05;100213.06;6118945;23;20211;-82
2021/12/12 14:14:33;;;;;;;8.50;6.60;;;;;;;3.95;65.13;100213.75;6161744;23;20209;-82
2021/12/12 14:17:59;;;;;;;8.50;6.57;;;;;;;3.81;65.70;100215.22;6177088;23;20210;-82
2021/12/12 14:21:10;;;;;;;8.83;6.77;;;;;;;3.69;66.59;100213.00;6168988;23;20193;-81
2021/12/12 14:23:50;;;;;;;8.57;6.67;;;;;;;3.70;65.56;100201.41;6192760;23;20210;-81
2021/12/12 14:31:06;;;;;;;9.20;6.87;;;;;;;3.86;65.17;100212.91;6193939;23;20230;-81
2021/12/12 14:34:17;;;;;;;9.63;7.37;;;;;;;3.84;66.00;100228.13;6212937;23;20591;-80
2021/12/12 14:37:19;;;;;;;9.77;7.57;;;;;;;3.83;66.33;100225.63;6190195;23;20221;-81
2021/12/12 14:39:56;;;;;;;9.43;7.60;;;;;;;3.85;65.93;100213.06;6209438;23;20229;-80
2021/12/12 14:43:14;;;;;;;10.23;7.53;;;;;;;3.81;66.81;100232.94;6187963;23;20166;-80
2021/12/12 14:46:16;;;;;;;10.50;7.77;;;;;;;3.72;67.15;100232.09;6204827;23;20189;-81
2021/12/12 14:49:15;;;;;;;10.80;8.47;;;;;;;3.65;67.85;100228.41;6149317;23;20171;-80
2021/12/12 14:52:31;;;;;;;11.30;7.90;;;;;;;3.66;67.97;100226.59;6220344;22;20215;-80
2021/12/12 14:55:21;;;;;;;10.93;8.43;;;;;;;3.66;67.78;100230.06;6245201;23;20216;-82
2021/12/12 14:58:24;;;;;;;10.80;8.30;;;;;;;3.61;67.83;100221.78;6219456;22;20189;-82
2021/12/12 15:05:13;;;;;;;11.17;8.60;;;;;;;3.43;68.58;100242.25;6277197;22;20208;-82
2021/12/12 15:08:58;;;;;;;11.03;8.60;;;;;;;3.34;68.81;100222.00;6204006;23;20182;-82
2021/12/12 15:11:53;;;;;;;10.53;8.40;;;;;;;3.47;69.08;100249.72;6210362;23;20220;-82
2021/12/12 15:14:36;;;;;;;11.70;8.20;;;;;;;3.48;68.63;100243.44;6243724;23;20530;-82
2021/12/12 15:17:15;;;;;;;10.20;8.43;;;;;;;3.43;68.81;100243.06;6240837;23;20317;-82
2021/12/12 15:20:15;;;;;;;10.00;7.63;;;;;;;3.38;68.99;100250.66;6195319;23;20205;-82
2021/12/12 15:23:09;;;;;;;10.47;8.43;;;;;;;3.36;69.50;100263.22;6204801;23;20206;-83
2021/12/12 15:25:46;;;;;;;9.97;7.80;;;;;;;3.35;68.86;100256.28;6193789;23;20233;-82
2021/12/12 15:28:35;;;;;;;10.00;8.10;;;;;;;3.33;69.28;100252.94;6241842;23;20188;-82
2021/12/12 15:31:26;;;;;;;10.17;7.90;;;;;;;3.25;69.47;100254.72;6145528;23;20211;-82
2021/12/12 15:34:41;;;;;;;8.07;6.40;;;;;;;3.35;68.42;100269.53;6181197;23;20194;-82
2021/12/12 15:37:32;;;;;;;9.27;6.90;;;;;;;3.26;68.90;100272.28;6167416;23;20206;-82
2021/12/12 15:40:30;;;;;;;7.60;6.60;;;;;;;3.27;69.05;100274.75;6151931;23;20270;-82
2021/12/12 15:43:39;;;;;;;8.70;6.10;;;;;;;3.38;67.78;100278.97;6178707;23;20198;-80
2021/12/12 15:46:17;;;;;;;7.30;6.03;;;;;;;3.26;68.22;100265.19;6118472;23;20229;-82
2021/12/12 15:48:50;;;;;;;8.17;5.73;;;;;;;3.36;68.10;100289.72;6145135;23;20617;-82
2021/12/12 15:51:22;;;;;;;7.30;5.90;;;;;;;3.30;68.29;100294.81;6144564;23;20618;-82
2021/12/12 15:54:19;;;;;;;7.07;6.10;;;;;;;3.30;67.66;100289.53;6130478;23;20199;-82
2021/12/12 15:57:00;;;;;;;7.23;5.70;;;;;;;3.17;68.34;100294.41;6177324;23;20218;-82
2021/12/12 16:00:02;;;;;;;7.23;5.63;;;;;;;3.17;68.25;100297.91;6142341;23;20201;-82
2021/12/12 16:03:08;;;;;;;6.20;4.90;;;;;;;3.27;67.87;100303.91;6106396;23;20194;-82
2021/12/12 16:06:05;;;;;;;5.83;5.20;;;;;;;3.08;68.20;100310.22;6175152;23;20206;-81
2021/12/12 16:08:43;;;;;;;7.80;5.43;;;;;;;3.09;67.83;100303.94;6180246;23;20198;-80
2021/12/12 16:11:24;;;;;;;6.03;5.20;;;;;;;3.17;67.82;100299.72;6163449;23;20236;-81
2021/12/12 16:14:00;;;;;;;6.10;5.13;;;;;;;3.00;68.49;100307.53;6210792;23;20153;-81
2021/12/12 16:16:52;;;;;;;7.07;5.60;;;;;;;3.01;68.45;100303.91;6205913;23;20202;-81
2021/12/12 16:19:53;;;;;;;6.03;4.93;;;;;;;2.94;68.19;100280.88;6160448;23;20174;-80
2021/12/12 16:22:27;;;;;;;5.97;5.20;;;;;;;2.98;68.37;100306.03;6194655;23;20185;-80
2021/12/12 16:25:29;;;;;;;5.40;4.90;;;;;;;3.04;68.08;100292.16;6159792;23;20174;-80
2021/12/12 16:29:26;;;;;;;5.90;5.30;;;;;;;3.19;67.95;100292.41;6201846;23;20197;-81
2021/12/12 16:32:59;;;;;;;6.30;5.47;;;;;;;3.12;67.46;100297.53;6201027;23;20231;-82
2021/12/12 16:35:45;;;;;;;7.13;4.90;;;;;;;2.86;68.08;100267.56;6177409;23;20167;-79
2021/12/12 16:38:44;;;;;;;6.13;4.73;;;;;;;3.06;68.34;100300.78;6209984;23;20227;-78
2021/12/12 16:41:52;;;;;;;6.53;5.07;;;;;;;2.98;67.97;100284.84;6211883;23;20509;-79
2021/12/12 16:45:16;;;;;;;5.93;5.10;;;;;;;3.02;68.20;100292.34;6230614;22;20191;-79
2021/12/12 16:48:34;;;;;;;6.30;4.97;;;;;;;2.99;67.95;100281.19;6246267;23;20209;-79
2021/12/12 16:51:44;;;;;;;5.20;4.57;;;;;;;3.03;68.28;100282.56;6267199;23;20231;-80
2021/12/12 16:54:39;;;;;;;6.53;4.77;;;;;;;2.97;68.70;100286.66;6229413;23;20201;-80
2021/12/12 16:57:36;;;;;;;6.60;5.07;;;;;;;2.90;68.44;100287.44;6247271;23;20231;-80
2021/12/12 17:01:00;;;;;;;5.90;4.90;;;;;;;2.83;68.92;100278.44;6266510;23;20244;-80
2021/12/12 17:04:30;;;;;;;5.70;4.37;;;;;;;2.98;68.44;100282.22;6270221;23;20180;-80
2021/12/12 17:07:09;;;;;;;6.13;4.30;;;;;;;2.93;68.23;100287.13;6266952;22;20224;-80
2021/12/12 17:09:58;;;;;;;5.80;4.70;;;;;;;3.01;68.02;100285.38;6269003;23;20196;-79
2021/12/12 17:12:49;;;;;;;4.90;4.30;;;;;;;3.07;68.29;100294.50;6271249;22;20169;-80
2021/12/12 17:15:30;;;;;;;5.73;4.67;;;;;;;3.03;67.96;100296.63;6266489;22;20627;-80
2021/12/12 17:18:24;;;;;;;5.37;4.30;;;;;;;3.14;66.85;100298.19;6241924;23;20224;-79
2021/12/12 17:21:31;;;;;;;5.60;4.57;;;;;;;3.15;67.07;100299.84;6257458;22;20209;-80
2021/12/12 17:24:12;;;;;;;5.13;4.13;;;;;;;3.26;66.85;100301.41;6264146;22;20212;-80
2021/12/12 17:26:49;;;;;;;5.70;4.57;;;;;;;3.20;67.03;100296.75;6266080;23;20208;-79
2021/12/12 17:29:44;;;;;;;5.10;4.60;;;;;;;3.33;66.55;100297.97;6263851;22;20204;-80
2021/12/12 17:32:53;;;;;;;5.20;4.30;;;;;;;3.33;66.36;100292.69;6267262;22;20199;-80
2021/12/12 17:36:01;;;;;;;5.00;4.50;;;;;;;3.17;66.87;100274.06;6243106;22;20196;-80
2021/12/12 17:38:40;;;;;;;5.07;4.43;;;;;;;3.31;66.58;100289.34;6175954;23;20258;-80
2021/12/12 17:41:47;;;;;;;6.23;4.70;;;;;;;3.22;66.95;100298.22;6146075;23;20215;-80
2021/12/12 17:44:44;;;;;;;4.70;4.00;;;;;;;3.37;66.67;100295.84;6169688;23;20671;-80
2021/12/12 17:47:59;;;;;;;5.20;4.40;;;;;;;3.43;66.16;100284.63;6189819;23;20166;-80
2021/12/12 17:51:09;;;;;;;5.53;4.53;;;;;;;3.30;66.14;100287.72;6232096;23;20204;-80
2021/12/12 17:53:44;;;;;;;4.73;4.23;;;;;;;3.37;66.49;100275.47;6214804;23;20154;-81
2021/12/12 17:56:43;;;;;;;6.07;4.50;;;;;;;3.31;66.44;100285.91;6233054;23;20204;-81
2021/12/12 18:00:04;;;;;;;5.23;4.33;;;;;;;3.43;66.32;100290.75;6289938;22;20210;-81
2021/12/12 18:02:50;;;;;;;5.20;4.47;;;;;;;3.33;66.58;100279.44;6284643;22;20196;-80
2021/12/12 18:05:37;;;;;;;4.80;4.10;;;;;;;3.34;66.33;100278.47;6235659;23;20173;-79
2021/12/12 18:09:12;;;;;;;4.90;4.17;;;;;;;3.33;66.54;100289.19;6211651;23;20190;-80
2021/12/12 18:15:37;;;;;;;5.07;4.57;;;;;;;3.42;66.27;100294.38;6269480;22;20156;-80
2021/12/12 18:18:51;;;;;;;5.40;4.53;;;;;;;3.47;66.27;100299.22;6177359;22;20218;-81
2021/12/12 18:21:30;;;;;;;4.53;4.13;;;;;;;3.59;66.07;100289.19;6270732;23;20224;-80
2021/12/12 18:24:34;;;;;;;4.67;4.07;;;;;;;3.48;66.13;100292.94;6246517;23;20149;-81
2021/12/12 18:27:39;;;;;;;4.73;4.20;;;;;;;3.58;66.28;100298.94;6260466;23;20193;-80
2021/12/12 18:30:55;;;;;;;4.80;4.20;;;;;;;3.56;66.01;100274.41;6232206;23;20170;-80
2021/12/12 18:33:44;;;;;;;5.07;4.30;;;;;;;3.57;66.54;100278.72;6246487;22;20192;-80
2021/12/12 18:36:47;;;;;;;4.97;4.40;;;;;;;3.57;66.21;100280.53;6264334;23;20200;-80
2021/12/12 18:39:54;;;;;;;5.33;4.37;;;;;;;3.61;66.31;100271.28;6295001;22;20198;-80
2021/12/12 18:43:37;;;;;;;5.40;4.47;;;;;;;3.59;66.49;100276.75;6299557;22;20231;-80
2021/12/12 18:46:41;;;;;;;5.67;5.03;;;;;;;3.54;66.80;100268.47;6296222;22;20212;-80
2021/12/12 18:49:50;;;;;;;5.00;4.40;;;;;;;3.69;66.38;100272.16;6282895;22;20204;-80
2021/12/12 18:56:46;;;;;;;4.83;4.33;;;;;;;3.51;67.26;100256.34;6271692;22;20204;-81
2021/12/12 18:59:31;;;;;;;5.43;4.90;;;;;;;3.57;67.08;100267.31;6243179;23;20169;-81
2021/12/12 19:06:47;;;;;;;4.83;4.37;;;;;;;3.51;67.41;100259.00;6219110;23;20189;-81
2021/12/12 19:09:47;;;;;;;5.00;4.50;;;;;;;3.64;67.11;100260.38;6221627;23;20192;-81
2021/12/12 19:13:07;;;;;;;5.00;4.50;;;;;;;3.54;66.92;100252.56;6248586;22;20210;-81
2021/12/12 19:16:09;;;;;;;4.47;4.07;;;;;;;3.59;67.47;100254.75;6183229;23;20167;-80
2021/12/12 19:18:46;;;;;;;6.60;4.63;;;;;;;3.63;67.21;100256.06;6201159;22;20201;-81
2021/12/12 19:21:50;;;;;;;4.50;4.10;;;;;;;3.68;66.92;100251.97;6212014;22;20188;-81
2021/12/12 19:24:47;;;;;;;4.50;4.10;;;;;;;3.72;66.31;100250.66;6279517;22;20219;-81
2021/12/12 19:28:25;;;;;;;4.47;4.07;;;;;;;3.71;66.85;100251.63;6303877;22;20152;-81
2021/12/12 19:31:26;;;;;;;3.93;3.53;;;;;;;3.77;66.49;100255.47;6292594;22;20144;-81
2021/12/12 19:34:08;;;;;;;4.43;4.03;;;;;;;3.77;65.77;100255.47;6278349;22;20148;-80
2021/12/12 19:41:09;;;;;;;4.47;4.07;;;;;;;3.72;65.96;100240.03;6305239;22;20210;-81
2021/12/12 19:44:08;;;;;;;4.60;4.10;;;;;;;3.84;65.53;100246.69;6171650;23;20155;-81
2021/12/12 19:46:58;;;;;;;4.40;3.97;;;;;;;3.81;65.41;100246.19;6194560;23;20217;-80
2021/12/12 19:49:46;;;;;;;5.07;4.20;;;;;;;3.89;65.12;100239.09;6196384;23;20210;-81
2021/12/12 19:52:47;;;;;;;4.40;4.00;;;;;;;3.85;64.80;100247.53;6136964;23;20213;-81
2021/12/12 19:55:42;;;;;;;4.17;3.70;;;;;;;3.93;65.11;100245.72;6203024;23;20229;-81
2021/12/12 19:59:27;;;;;;;4.00;3.60;;;;;;;4.05;64.19;100248.09;6205471;23;20225;-80
2021/12/12 20:02:25;;;;;;;4.40;3.80;;;;;;;4.06;63.48;100247.09;6174290;23;20210;-80
2021/12/12 20:05:06;;;;;;;4.20;3.77;;;;;;;4.21;62.55;100235.66;6194545;23;20198;-80
2021/12/12 20:07:45;;;;;;;4.77;3.80;;;;;;;4.31;62.18;100238.16;6251792;22;20187;-80
2021/12/12 20:10:54;;;;;;;5.73;4.03;;;;;;;4.38;62.09;100228.56;6293725;22;20199;-81
2021/12/12 20:13:49;;;;;;;4.03;3.43;;;;;;;4.36;62.37;100223.41;6293144;22;20649;-81
2021/12/12 20:17:21;;;;;;;3.87;3.47;;;;;;;4.41;62.25;100233.53;6269814;22;20459;-80
2021/12/12 20:20:28;;;;;;;4.77;3.90;;;;;;;4.41;62.64;100250.28;6298157;22;20210;-80
2021/12/12 20:23:43;;;;;;;4.40;3.90;;;;;;;4.38;62.75;100231.22;6303600;22;20160;-80
2021/12/12 20:26:22;;;;;;;4.47;3.80;;;;;;;4.26;63.20;100214.78;6300505;22;20200;-80
2021/12/12 20:29:27;;;;;;;4.00;3.60;;;;;;;4.32;62.22;100214.13;6302914;22;20148;-81
2021/12/12 20:32:15;;;;;;;3.83;3.53;;;;;;;4.29;62.27;100222.41;6298228;22;20203;-80
2021/12/12 20:34:56;;;;;;;6.07;3.87;;;;;;;4.24;63.51;100230.06;6299844;22;20211;-80
2021/12/12 20:37:37;;;;;;;5.60;5.00;;;;;;;4.03;64.58;100213.75;6289559;22;20239;-80
2021/12/12 20:40:13;;;;;;;6.00;4.90;;;;;;;4.05;65.42;100219.75;6295790;22;20188;-80
2021/12/12 20:42:48;;;;;;;5.63;4.67;;;;;;;3.89;65.37;100217.88;6293266;22;20496;-80
2021/12/12 20:45:42;;;;;;;6.37;5.07;;;;;;;3.75;66.04;100213.22;6288026;22;20233;-81
2021/12/12 20:49:01;;;;;;;5.43;4.20;;;;;;;3.94;64.97;100220.88;6264968;22;20204;-80
2021/12/12 20:52:15;;;;;;;4.90;4.40;;;;;;;3.69;67.29;100237.69;6298668;22;20156;-80
2021/12/12 20:55:33;;;;;;;6.63;4.73;;;;;;;3.80;66.36;100234.75;6298392;22;20208;-80
2021/12/12 20:58:49;;;;;;;7.13;4.80;;;;;;;3.69;67.41;100231.56;6204981;23;20176;-80
2021/12/12 21:02:00;;;;;;;6.07;5.10;;;;;;;3.57;67.29;100236.34;6236317;22;20211;-80
2021/12/12 21:04:58;;;;;;;5.90;4.97;;;;;;;3.51;68.08;100235.16;6297887;22;20264;-80
2021/12/12 21:08:41;;;;;;;5.80;4.77;;;;;;;3.62;66.96;100235.84;6296681;22;20212;-80
2021/12/12 21:11:55;;;;;;;5.67;4.60;;;;;;;3.61;67.42;100237.66;6298473;22;20180;-80
2021/12/12 21:14:47;;;;;;;5.73;4.90;;;;;;;3.59;67.45;100230.88;6299614;22;20187;-80
2021/12/12 21:18:04;;;;;;;5.80;4.70;;;;;;;3.57;67.64;100222.25;6298441;22;20254;-80
2021/12/12 21:21:12;;;;;;;4.97;4.30;;;;;;;3.45;68.24;100204.00;6298477;22;20591;-80
2021/12/12 21:24:16;;;;;;;4.67;4.23;;;;;;;3.27;68.90;100190.00;6296359;22;20205;-80
2021/12/12 21:27:36;;;;;;;5.93;4.70;;;;;;;3.19;69.89;100212.97;6282457;22;20204;-80
2021/12/12 21:30:46;;;;;;;6.00;5.20;;;;;;;3.22;69.92;100216.13;6292133;22;20219;-80
2021/12/12 21:34:04;;;;;;;6.30;5.23;;;;;;;3.12;70.25;100207.50;6200234;22;20217;-80
2021/12/12 21:37:18;;;;;;;5.77;4.47;;;;;;;3.16;69.73;100219.44;6133565;23;20163;-80
2021/12/12 21:40:23;;;;;;;6.60;5.83;;;;;;;3.08;70.08;100219.38;6175155;23;20217;-80
2021/12/12 21:43:09;;;;;;;5.93;5.00;;;;;;;3.07;70.52;100217.75;6176805;22;20202;-80
2021/12/12 21:45:44;;;;;;;6.17;5.20;;;;;;;2.92;70.74;100227.25;6286685;22;20196;-80
2021/12/12 21:48:53;;;;;;;5.90;5.20;;;;;;;3.03;70.89;100230.44;6288222;22;20211;-80
2021/12/12 21:52:59;;;;;;;6.67;5.47;;;;;;;3.01;70.85;100223.66;6292984;22;20212;-80
2021/12/12 21:56:12;;;;;;;6.90;5.27;;;;;;;3.03;70.78;100234.94;6258968;22;20208;-80
2021/12/12 21:59:09;;;;;;;6.57;5.63;;;;;;;3.20;70.76;100219.94;6235507;22;20291;-80
2021/12/12 22:01:55;;;;;;;6.70;5.40;;;;;;;3.26;70.61;100212.22;6254003;22;20208;-80
2021/12/12 22:04:29;;;;;;;5.27;4.77;;;;;;;3.40;69.70;100202.84;6243549;23;20208;-80
2021/12/12 22:07:37;;;;;;;7.20;5.60;;;;;;;3.59;69.53;100218.47;6221816;22;20206;-80
2021/12/12 22:10:35;;;;;;;6.27;4.97;;;;;;;3.73;69.15;100209.06;6290222;22;20210;-80
2021/12/12 22:13:08;;;;;;;6.37;5.03;;;;;;;3.74;68.69;100200.94;6295835;22;20223;-80
2021/12/12 22:16:14;;;;;;;8.53;5.50;;;;;;;3.63;69.32;100214.50;6286333;22;20287;-78
2021/12/12 22:18:56;;;;;;;6.80;5.40;;;;;;;3.41;69.30;100180.63;6287086;22;20234;-81
2021/12/12 22:21:48;;;;;;;6.40;5.30;;;;;;;3.53;69.72;100206.69;6291709;22;20302;-78
2021/12/12 22:24:46;;;;;;;7.33;5.60;;;;;;;3.33;70.31;100207.94;6287473;22;20279;-78
2021/12/12 22:27:17;;;;;;;7.17;5.70;;;;;;;3.03;71.23;100211.91;6288682;22;20266;-78
2021/12/12 22:29:53;;;;;;;6.53;5.60;;;;;;;2.99;71.76;100212.38;6283522;22;20196;-78
2021/12/12 22:32:29;;;;;;;6.60;6.00;;;;;;;2.78;72.27;100209.28;6201163;23;20477;-81
2021/12/12 22:35:07;;;;;;;8.67;6.60;;;;;;;2.75;73.55;100209.59;6198711;23;20269;-81
2021/12/12 22:38:06;;;;;;;6.83;5.97;;;;;;;2.91;73.23;100221.09;6239965;23;20206;-78
2021/12/12 22:41:24;;;;;;;6.20;5.60;;;;;;;2.78;73.99;100215.41;6237386;23;20253;-80
2021/12/12 22:44:46;;;;;;;3.27;2.53;;;;;;;3.36;75.24;100212.09;6249178;22;20192;-78
2021/12/12 22:47:39;;;;;;;3.37;2.90;;;;;;;3.73;73.95;100198.47;6286238;22;20226;-78